createdAt,value
2018-01-29T00:00:55.862Z,407.67
2018-01-29T00:03:25.022Z,406.23
2018-01-29T00:05:54.174Z,410.50
2018-01-29T00:08:23.352Z,413.87
2018-01-29T00:10:52.525Z,416.77
2018-01-29T00:13:21.679Z,428.00
2018-01-29T00:15:50.914Z,410.07
2018-01-29T00:18:20.041Z,416.33
2018-01-29T00:20:49.216Z,387.30
2018-01-29T00:23:18.406Z,367.57
2018-01-29T00:25:47.601Z,352.40
2018-01-29T00:28:16.778Z,308.90
2018-01-29T00:30:45.912Z,327.10
2018-01-29T00:33:15.100Z,360.00
2018-01-29T00:35:44.260Z,359.70
2018-01-29T00:38:13.450Z,380.70
2018-01-29T00:40:42.601Z,379.73
2018-01-29T00:43:11.777Z,358.40
2018-01-29T00:45:40.966Z,367.13
2018-01-29T00:48:10.108Z,377.93
2018-01-29T00:50:39.297Z,380.13
2018-01-29T00:53:08.469Z,407.00
2018-01-29T00:55:37.609Z,389.50
2018-01-29T00:58:06.782Z,373.97
2018-01-29T01:00:35.921Z,382.63
2018-01-29T01:03:05.133Z,403.93
2018-01-29T01:05:34.285Z,402.87
2018-01-29T01:08:03.462Z,412.50
2018-01-29T01:10:32.602Z,435.27
2018-01-29T01:13:01.776Z,450.80
2018-01-29T01:15:30.925Z,464.10
2018-01-29T01:18:00.107Z,472.47
2018-01-29T01:20:29.281Z,463.63
2018-01-29T01:22:58.469Z,459.53
2018-01-29T01:25:27.652Z,471.77
2018-01-29T01:27:56.806Z,458.33
2018-01-29T01:30:26.048Z,469.03
2018-01-29T01:32:55.190Z,466.80
2018-01-29T01:35:24.336Z,478.40
2018-01-29T01:37:53.475Z,476.77
2018-01-29T01:40:22.661Z,491.53
2018-01-29T01:42:51.850Z,486.33
2018-01-29T01:45:21.032Z,474.03
2018-01-29T01:47:50.205Z,481.63
2018-01-29T01:50:19.352Z,476.23
2018-01-29T01:52:48.491Z,501.93
2018-01-29T01:55:17.637Z,499.90
2018-01-29T01:57:46.787Z,507.93
2018-01-29T02:00:15.963Z,487.53
2018-01-29T02:02:45.143Z,497.77
2018-01-29T02:05:14.294Z,484.63
2018-01-29T02:07:43.462Z,458.10
2018-01-29T02:10:12.664Z,452.90
2018-01-29T02:12:41.802Z,454.13
2018-01-29T02:15:10.985Z,421.33
2018-01-29T02:17:40.143Z,400.07
2018-01-29T02:20:09.346Z,386.67
2018-01-29T02:22:38.513Z,366.20
2018-01-29T02:25:07.669Z,373.70
2018-01-29T02:27:36.849Z,392.77
2018-01-29T02:30:06.062Z,368.73
2018-01-29T02:32:35.210Z,359.93
2018-01-29T02:35:04.363Z,367.63
2018-01-29T02:37:33.514Z,352.73
2018-01-29T02:40:02.669Z,327.47
2018-01-29T02:42:31.867Z,325.13
2018-01-29T02:45:01.016Z,357.27
2018-01-29T02:47:30.171Z,343.07
2018-01-29T02:49:59.316Z,319.77
2018-01-29T02:52:28.521Z,268.47
2018-01-29T02:54:57.685Z,260.13
2018-01-29T02:57:26.836Z,278.77
2018-01-29T02:59:56.010Z,306.80
2018-01-29T03:02:25.153Z,316.33
2018-01-29T03:04:54.344Z,312.53
2018-01-29T03:07:23.490Z,294.23
2018-01-29T03:09:52.660Z,317.27
2018-01-29T03:12:21.817Z,332.10
2018-01-29T03:14:50.997Z,344.90
2018-01-29T03:19:57.924Z,378.07
2018-01-29T03:22:27.076Z,402.57
2018-01-29T03:24:56.272Z,447.63
2018-01-29T03:27:25.452Z,470.20
2018-01-29T03:29:54.627Z,484.80
2018-01-29T03:32:23.834Z,496.20
2018-01-29T03:34:52.969Z,510.80
2018-01-29T03:37:22.120Z,517.50
2018-01-29T03:39:51.272Z,503.87
2018-01-29T03:42:20.418Z,526.00
2018-01-29T03:44:49.637Z,531.83
2018-01-29T03:47:18.803Z,539.67
2018-01-29T03:49:47.964Z,550.43
2018-01-29T03:52:17.096Z,553.80
2018-01-29T03:54:46.264Z,550.83
2018-01-29T03:57:15.435Z,559.07
2018-01-29T03:59:44.588Z,549.83
2018-01-29T04:02:13.784Z,551.30
2018-01-29T04:04:42.927Z,550.10
2018-01-29T04:07:12.073Z,558.07
2018-01-29T04:09:41.217Z,561.33
2018-01-29T04:12:10.437Z,565.27
2018-01-29T04:14:40.144Z,564.47
2018-01-29T04:17:09.338Z,560.97
2018-01-29T04:19:38.510Z,557.03
2018-01-29T04:22:07.665Z,553.30
2018-01-29T04:24:36.862Z,556.33
2018-01-29T04:27:06.010Z,545.47
2018-01-29T04:29:35.168Z,546.53
2018-01-29T04:32:04.314Z,561.50
2018-01-29T04:34:33.486Z,565.53
2018-01-29T04:37:02.657Z,579.03
2018-01-29T04:39:31.801Z,577.87
2018-01-29T04:42:00.974Z,571.33
2018-01-29T04:44:30.977Z,566.63
2018-01-29T04:47:00.123Z,554.40
2018-01-29T04:49:29.370Z,547.03
2018-01-29T04:51:58.550Z,543.77
2018-01-29T04:54:27.707Z,526.03
2018-01-29T04:56:56.905Z,543.73
2018-01-29T04:59:26.037Z,542.27
2018-01-29T05:01:55.189Z,548.63
2018-01-29T05:04:24.335Z,546.63
2018-01-29T05:06:53.476Z,560.70
2018-01-29T05:09:22.652Z,556.87
2018-01-29T05:11:51.895Z,567.93
2018-01-29T05:14:21.038Z,583.00
2018-01-29T05:16:50.190Z,585.17
2018-01-29T05:19:19.338Z,588.90
2018-01-29T05:21:48.481Z,595.93
2018-01-29T05:24:17.641Z,591.77
2018-01-29T05:26:46.815Z,587.53
2018-01-29T05:29:15.990Z,586.37
2018-01-29T05:31:45.137Z,597.53
2018-01-29T05:34:14.317Z,603.37
2018-01-29T05:36:49.165Z,608.10
2018-01-29T05:39:18.305Z,605.13
2018-01-29T05:41:47.456Z,619.63
2018-01-29T05:44:16.604Z,628.70
2018-01-29T05:46:45.773Z,628.30
2018-01-29T05:49:14.933Z,638.33
2018-01-29T05:51:44.137Z,632.93
2018-01-29T05:54:13.276Z,639.30
2018-01-29T05:56:42.460Z,634.73
2018-01-29T05:59:11.633Z,627.17
2018-01-29T06:01:40.788Z,616.13
2018-01-29T06:04:09.928Z,607.90
2018-01-29T06:06:39.106Z,608.13
2018-01-29T06:09:08.240Z,579.07
2018-01-29T06:11:37.420Z,594.33
2018-01-29T06:14:06.556Z,601.90
2018-01-29T06:16:35.767Z,586.10
2018-01-29T06:19:04.913Z,585.80
2018-01-29T06:21:34.100Z,581.93
2018-01-29T06:24:03.255Z,582.47
2018-01-29T06:26:32.425Z,585.47
2018-01-29T06:29:01.616Z,595.70
2018-01-29T06:31:31.653Z,601.23
2018-01-29T06:34:00.841Z,597.97
2018-01-29T06:36:29.990Z,587.20
2018-01-29T06:38:59.201Z,556.93
2018-01-29T06:41:28.392Z,563.70
2018-01-29T06:43:57.538Z,540.20
2018-01-29T06:46:26.693Z,547.20
2018-01-29T06:48:55.845Z,549.13
2018-01-29T06:51:25.025Z,560.70
2018-01-29T06:53:54.174Z,567.43
2018-01-29T06:56:23.361Z,583.90
2018-01-29T06:58:52.511Z,592.80
2018-01-29T07:01:21.705Z,619.03
2018-01-29T07:03:50.847Z,631.37
2018-01-29T07:06:20.017Z,624.43
2018-01-29T07:08:49.165Z,642.03
2018-01-29T07:11:18.362Z,649.40
2018-01-29T07:13:47.506Z,661.60
2018-01-29T07:16:16.658Z,692.07
2018-01-29T07:18:45.848Z,685.50
2018-01-29T07:21:15.078Z,712.13
2018-01-29T07:23:44.265Z,715.80
2018-01-29T07:26:13.408Z,725.47
2018-01-29T07:28:42.555Z,734.23
2018-01-29T07:31:11.701Z,745.37
2018-01-29T07:33:40.872Z,742.97
2018-01-29T07:36:10.022Z,742.57
2018-01-29T07:38:39.216Z,738.60
2018-01-29T07:41:08.349Z,733.87
2018-01-29T07:43:37.502Z,716.93
2018-01-29T07:46:06.690Z,722.30
2018-01-29T07:48:35.837Z,716.47
2018-01-29T07:51:05.028Z,718.93
2018-01-29T07:53:34.186Z,712.57
2018-01-29T07:56:03.364Z,708.73
2018-01-29T07:58:32.511Z,730.07
2018-01-29T08:01:01.815Z,719.27
2018-01-29T08:03:30.979Z,721.87
2018-01-29T08:06:00.134Z,718.90
2018-01-29T08:08:29.280Z,726.23
2018-01-29T08:10:58.462Z,722.23
2018-01-29T08:13:27.605Z,709.83
2018-01-29T08:15:56.790Z,697.13
2018-01-29T08:18:25.949Z,705.80
2018-01-29T08:20:55.155Z,696.53
2018-01-29T08:23:24.314Z,710.23
2018-01-29T08:25:53.474Z,696.00
2018-01-29T08:28:22.659Z,690.30
2018-01-29T08:30:51.819Z,678.93
2018-01-29T08:33:21.046Z,670.60
2018-01-29T08:35:50.221Z,662.93
2018-01-29T08:38:19.405Z,659.53
2018-01-29T08:40:48.558Z,649.17
2018-01-29T08:43:17.736Z,648.67
2018-01-29T08:45:46.926Z,642.80
2018-01-29T08:48:16.071Z,647.83
2018-01-29T08:50:45.271Z,637.97
2018-01-29T08:53:14.454Z,623.03
2018-01-29T08:55:43.645Z,615.13
2018-01-29T09:09:55.658Z,568.23
2018-01-29T09:12:30.953Z,580.93
2018-01-29T09:40:52.281Z,402.13
2018-01-29T09:43:21.448Z,395.43
2018-01-29T09:45:50.638Z,429.47
2018-01-29T09:48:19.791Z,427.30
2018-01-29T09:50:48.978Z,397.17
2018-01-29T09:53:18.160Z,419.00
2018-01-29T09:55:47.329Z,375.67
2018-01-29T09:58:16.510Z,350.13
2018-01-29T11:30:28.699Z,469.90
2018-01-29T11:32:57.847Z,520.57
2018-01-29T11:35:27.001Z,598.33
2018-01-29T11:37:56.218Z,470.70
2018-01-29T11:40:25.421Z,514.87
2018-01-29T11:42:54.577Z,465.90
2018-01-29T11:45:23.761Z,467.80
2018-01-29T11:47:52.936Z,548.83
2018-01-29T11:50:22.129Z,634.13
2018-01-29T11:52:51.295Z,670.57
2018-01-29T11:55:20.493Z,606.73
2018-01-29T11:57:49.688Z,654.63
2018-01-29T12:00:18.849Z,629.97
2018-01-29T12:02:48.048Z,631.13
2018-01-29T12:05:17.237Z,695.50
2018-01-29T12:07:46.423Z,691.03
2018-01-29T12:10:15.593Z,686.30
2018-01-29T12:12:44.768Z,708.63
2018-01-29T12:15:13.955Z,723.17
2018-01-29T12:17:43.127Z,700.57
2018-01-29T12:20:12.330Z,812.73
2018-01-29T12:22:41.540Z,752.10
2018-01-29T12:25:10.794Z,707.67
2018-01-29T12:27:39.933Z,583.03
2018-01-29T12:30:09.082Z,509.70
2018-01-29T12:32:38.286Z,630.97
2018-01-29T12:35:07.466Z,726.20
2018-01-29T12:37:36.702Z,712.07
2018-01-29T12:40:05.864Z,737.17
2018-01-29T12:42:35.038Z,783.97
2018-01-29T12:45:04.197Z,808.23
2018-01-29T12:47:33.397Z,827.33
2018-01-29T12:50:02.558Z,846.57
2018-01-29T12:52:31.758Z,856.33
2018-01-29T12:55:00.939Z,870.70
2018-01-29T12:57:30.153Z,880.07
2018-01-29T12:59:59.320Z,876.30
2018-01-29T13:02:28.511Z,878.80
2018-01-29T13:04:57.667Z,870.67
2018-01-29T13:07:26.838Z,869.20
2018-01-29T13:09:56.030Z,878.83
2018-01-29T13:12:25.233Z,868.23
2018-01-29T13:14:54.426Z,877.63
2018-01-29T13:17:23.622Z,867.57
2018-01-29T13:19:52.822Z,859.70
2018-01-29T13:22:21.986Z,849.97
2018-01-29T13:24:51.172Z,838.37
2018-01-29T13:27:20.375Z,837.80
2018-01-29T13:29:49.573Z,849.77
2018-01-29T13:32:18.792Z,826.67
2018-01-29T13:34:48.038Z,823.63
2018-01-29T13:37:17.210Z,825.20
2018-01-29T13:39:46.414Z,835.83
2018-01-29T13:42:15.618Z,843.30
2018-01-29T13:44:44.797Z,835.20
2018-01-29T13:47:13.967Z,863.13
2018-01-29T13:49:43.201Z,841.13
2018-01-29T13:52:12.376Z,863.17
2018-01-29T13:54:41.592Z,867.17
2018-01-29T13:57:10.766Z,853.37
2018-01-29T13:59:39.969Z,856.60
2018-01-29T14:02:09.190Z,856.37
2018-01-29T14:04:38.372Z,844.57
2018-01-29T14:07:07.593Z,869.73
2018-01-29T14:09:36.799Z,854.23
2018-01-29T14:12:05.969Z,846.87
2018-01-29T14:14:35.185Z,860.30
2018-01-29T14:17:04.381Z,864.47
2018-01-29T14:19:33.545Z,870.57
2018-01-29T14:22:02.765Z,870.03
2018-01-29T14:24:31.985Z,875.17
2018-01-29T14:27:01.163Z,880.47
2018-01-29T14:29:30.355Z,899.90
2018-01-29T14:31:59.538Z,892.77
2018-01-29T14:34:28.742Z,900.43
2018-01-29T14:36:57.942Z,893.00
2018-01-29T14:39:27.165Z,892.23
2018-01-29T14:41:56.332Z,897.63
2018-01-29T14:44:25.547Z,898.53
2018-01-29T14:46:54.729Z,891.67
2018-01-29T14:49:23.939Z,890.50
2018-01-29T14:51:53.141Z,901.00
2018-01-29T14:54:22.315Z,906.50
2018-01-29T14:56:51.525Z,898.33
2018-01-29T14:59:20.777Z,891.47
2018-01-29T15:01:49.932Z,893.60
2018-01-29T15:04:19.097Z,885.37
2018-01-29T15:06:48.263Z,885.73
2018-01-29T15:09:17.412Z,894.10
2018-01-29T15:11:46.590Z,888.90
2018-01-29T15:14:15.775Z,891.77
2018-01-29T15:16:44.980Z,899.13
2018-01-29T15:19:14.186Z,887.87
2018-01-29T15:21:43.348Z,903.67
2018-01-29T15:24:12.580Z,895.90
2018-01-29T15:26:41.711Z,891.33
2018-01-29T15:29:10.860Z,895.73
2018-01-29T15:31:40.012Z,905.27
2018-01-29T15:34:09.231Z,894.30
2018-01-29T15:36:38.392Z,894.87
2018-01-29T15:39:07.593Z,911.47
2018-01-29T15:41:36.809Z,899.87
2018-01-29T15:44:05.968Z,891.30
2018-01-29T15:46:35.180Z,886.50
2018-01-29T15:49:04.350Z,893.37
2018-01-29T15:51:33.524Z,886.00
2018-01-29T15:54:02.694Z,895.47
2018-01-29T15:56:31.870Z,886.90
2018-01-29T15:59:01.035Z,889.90
2018-01-29T16:01:30.272Z,896.70
2018-01-29T16:03:59.443Z,900.67
2018-01-29T16:06:28.638Z,894.30
2018-01-29T16:08:57.845Z,887.17
2018-01-29T16:11:27.013Z,893.37
2018-01-29T16:13:56.324Z,896.47
2018-01-29T16:16:25.492Z,895.40
2018-01-29T16:18:54.715Z,903.13
2018-01-29T16:21:23.878Z,889.47
2018-01-29T16:23:53.069Z,894.30
2018-01-29T16:26:22.245Z,888.97
2018-01-29T16:28:51.464Z,898.57
2018-01-29T16:31:20.627Z,885.40
2018-01-29T16:33:49.905Z,891.17
2018-01-29T16:36:19.113Z,887.50
2018-01-29T16:38:48.288Z,872.67
2018-01-29T16:41:17.517Z,891.93
2018-01-29T16:43:46.707Z,886.03
2018-01-29T16:46:15.878Z,881.37
2018-01-29T16:48:45.114Z,874.67
2018-01-29T16:51:14.286Z,871.90
2018-01-29T16:53:43.461Z,873.93
2018-01-29T16:56:12.657Z,871.30
2018-01-29T16:58:41.833Z,862.80
2018-01-29T17:01:11.030Z,849.27
2018-01-29T17:03:40.360Z,846.23
2018-01-29T17:06:09.541Z,860.60
2018-01-29T17:08:38.772Z,842.17
2018-01-29T17:11:07.943Z,854.20
2018-01-29T17:13:37.104Z,854.13
2018-01-29T17:16:06.285Z,832.00
2018-01-29T17:18:35.468Z,822.90
2018-01-29T17:21:04.672Z,839.80
2018-01-29T17:23:33.864Z,856.40
2018-01-29T17:26:03.090Z,849.17
2018-01-29T17:28:32.299Z,845.50
2018-01-29T17:31:01.455Z,851.67
2018-01-29T17:33:30.691Z,863.27
2018-01-29T17:35:59.914Z,866.10
2018-01-29T17:38:29.101Z,850.07
2018-01-29T17:40:58.293Z,844.50
2018-01-29T17:43:27.520Z,854.17
2018-01-29T17:45:56.705Z,863.33
2018-01-29T17:48:25.850Z,848.77
2018-01-29T17:50:55.077Z,846.20
2018-01-29T17:53:24.264Z,850.13
2018-01-29T17:55:53.498Z,841.20
2018-01-29T17:58:22.710Z,844.13
2018-01-29T18:00:51.884Z,842.53
2018-01-29T18:03:21.125Z,833.50
2018-01-29T18:05:50.299Z,823.43
2018-01-29T18:08:19.499Z,829.40
2018-01-29T18:10:48.736Z,826.33
2018-01-29T18:13:17.920Z,821.37
2018-01-29T18:15:47.153Z,819.60
2018-01-29T18:18:16.379Z,817.80
2018-01-29T18:20:45.619Z,827.00
2018-01-29T18:23:14.796Z,815.57
2018-01-29T18:25:43.966Z,802.03
2018-01-29T18:28:13.157Z,798.00
2018-01-29T18:30:42.357Z,797.63
2018-01-29T18:33:11.545Z,804.37
2018-01-29T18:35:40.767Z,796.07
2018-01-29T18:38:09.926Z,814.63
2018-01-29T18:40:39.100Z,804.23
2018-01-29T18:43:08.308Z,798.70
2018-01-29T18:45:37.501Z,792.77
2018-01-29T18:48:06.707Z,768.10
2018-01-29T18:50:35.917Z,760.03
2018-01-29T18:53:05.105Z,753.60
2018-01-29T18:55:34.289Z,751.53
2018-01-29T18:58:03.473Z,735.90
2018-01-29T19:00:32.677Z,727.10
2018-01-29T19:03:01.841Z,736.80
2018-01-29T19:05:31.051Z,720.10
2018-01-29T19:08:00.229Z,725.70
2018-01-29T19:10:29.446Z,702.07
2018-01-29T19:12:58.600Z,719.80
2018-01-29T19:15:27.761Z,735.43
2018-01-29T19:17:56.951Z,691.60
2018-01-29T19:20:26.175Z,689.27
2018-01-29T19:22:55.384Z,706.27
2018-01-29T19:25:24.603Z,701.00
2018-01-29T19:27:53.754Z,714.17
2018-01-29T19:30:22.958Z,693.67
2018-01-29T19:32:52.166Z,705.50
2018-01-29T19:35:21.314Z,686.23
2018-01-29T19:37:50.514Z,703.70
2018-01-29T19:40:19.693Z,709.20
2018-01-29T19:42:48.904Z,698.33
2018-01-29T19:45:18.126Z,690.87
2018-01-29T19:47:47.333Z,687.43
2018-01-29T19:50:16.506Z,674.57
2018-01-29T19:52:45.721Z,698.10
2018-01-29T19:55:14.888Z,716.77
2018-01-29T19:57:44.071Z,708.70
2018-01-29T20:00:13.246Z,731.00
2018-01-29T20:02:42.451Z,738.60
2018-01-29T20:05:11.598Z,758.70
2018-01-29T20:07:40.822Z,759.90
2018-01-29T20:10:10.010Z,751.53
2018-01-29T20:12:39.196Z,759.17
2018-01-29T20:15:08.914Z,780.10
2018-01-29T20:17:38.112Z,781.73
2018-01-29T20:20:07.296Z,808.70
2018-01-29T20:22:36.527Z,803.70
2018-01-29T20:25:05.718Z,798.13
2018-01-29T20:27:34.865Z,811.57
2018-01-29T20:30:04.078Z,813.60
2018-01-29T20:32:33.282Z,826.80
2018-01-29T20:35:02.467Z,825.67
2018-01-29T20:37:31.662Z,825.77
2018-01-29T20:40:00.848Z,836.10
2018-01-29T20:42:30.062Z,841.23
2018-01-29T20:44:59.298Z,849.13
2018-01-29T20:47:28.450Z,853.00
2018-01-29T20:49:57.621Z,850.23
2018-01-29T20:52:26.823Z,847.63
2018-01-29T20:54:55.998Z,847.00
2018-01-29T20:57:25.191Z,839.87
2018-01-29T20:59:54.382Z,852.60
2018-01-29T21:02:23.605Z,854.37
2018-01-29T21:04:52.811Z,867.60
2018-01-29T21:07:22.017Z,860.70
2018-01-29T21:09:51.172Z,854.00
2018-01-29T21:12:20.372Z,866.87
2018-01-29T21:14:49.547Z,855.87
2018-01-29T21:17:18.755Z,859.23
2018-01-29T21:19:47.920Z,852.83
2018-01-29T21:22:17.140Z,855.53
2018-01-29T21:24:46.345Z,852.87
2018-01-29T21:27:15.516Z,844.30
2018-01-29T21:29:44.751Z,851.10
2018-01-29T21:32:13.915Z,854.20
2018-01-29T21:34:43.125Z,845.50
2018-01-29T21:37:12.274Z,829.37
2018-01-29T21:39:41.501Z,833.40
2018-01-29T21:42:10.676Z,845.03
2018-01-29T21:44:39.885Z,845.63
2018-01-29T21:47:09.050Z,835.50
2018-01-29T21:49:38.213Z,840.67
2018-01-29T21:52:07.401Z,846.97
2018-01-29T21:54:36.569Z,847.43
2018-01-29T21:57:05.770Z,844.90
2018-01-29T21:59:34.934Z,847.60
2018-01-29T22:02:04.164Z,857.10
2018-01-29T22:04:33.388Z,841.10
2018-01-29T22:07:02.567Z,852.30
2018-01-29T22:09:31.762Z,853.07
2018-01-29T22:12:00.933Z,859.57
2018-01-29T22:14:30.089Z,858.67
2018-01-29T22:16:59.281Z,851.47
2018-01-29T22:19:28.443Z,849.27
2018-01-29T22:21:57.606Z,850.07
2018-01-29T22:24:26.779Z,852.30
2018-01-29T22:26:55.921Z,854.97
2018-01-29T22:29:25.109Z,864.57
2018-01-29T22:31:54.307Z,868.40
2018-01-29T22:34:23.505Z,858.87
2018-01-29T22:36:52.647Z,867.07
2018-01-29T22:39:21.834Z,865.70
2018-01-29T22:41:51.004Z,870.60
2018-01-29T22:44:20.180Z,861.63
2018-01-29T22:46:49.374Z,852.83
2018-01-29T22:49:18.538Z,848.27
2018-01-29T22:51:47.774Z,855.20
2018-01-29T22:54:16.921Z,860.50
2018-01-29T22:56:46.061Z,858.33
2018-01-29T22:59:15.261Z,853.47
2018-01-29T23:01:44.470Z,872.50
2018-01-29T23:04:13.628Z,858.53
2018-01-29T23:06:42.821Z,867.60
2018-01-29T23:09:11.953Z,866.23
2018-01-29T23:11:41.130Z,855.87
2018-01-29T23:14:10.293Z,868.53
2018-01-29T23:16:39.506Z,871.37
2018-01-29T23:19:08.661Z,861.90
2018-01-29T23:21:37.881Z,857.37
2018-01-29T23:24:07.027Z,885.77
2018-01-29T23:26:36.216Z,871.17
2018-01-29T23:29:05.366Z,876.03
2018-01-29T23:31:34.558Z,866.00
2018-01-29T23:34:03.714Z,859.77
2018-01-29T23:36:32.901Z,876.03
2018-01-29T23:39:02.059Z,872.40
2018-01-29T23:41:31.248Z,873.00
2018-01-29T23:44:00.435Z,870.57
2018-01-29T23:46:29.650Z,872.53
2018-01-29T23:48:58.810Z,905.60
2018-01-29T23:51:27.949Z,863.23
2018-01-29T23:53:57.123Z,866.20
2018-01-29T23:56:26.306Z,850.93
2018-01-29T23:58:55.515Z,852.97
